Time;durP1;ratioP1;P1;durP2;ratioP2;P2;SDS_P1;SDS_P2;PMS_P1;PMS_P2;Temp;Humidity;BMP_temperature;BMP_pressure;BME280_temperature;BME280_humidity;BME280_pressure;Samples;Min_cycle;Max_cycle;Signal;HPM_P1;HPM_P2
2024/01/17 00:01:54;;;;;;;93.28;17.38;;;5.00;95.60;;;;;;5090906;28;20035;-50
2024/01/17 00:04:20;;;;;;;93.25;16.83;;;5.00;95.60;;;;;;5108999;28;20024;-50
2024/01/17 00:06:45;;;;;;;73.63;16.58;;;5.00;95.60;;;;;;5109050;28;20476;-50
2024/01/17 00:09:11;;;;;;;70.65;14.73;;;5.00;95.60;;;;;;5108856;28;20032;-49
2024/01/17 00:11:37;;;;;;;68.85;15.27;;;5.00;95.60;;;;;;5108877;28;20107;-49
2024/01/17 00:14:03;;;;;;;76.95;15.95;;;5.00;95.70;;;;;;5108732;28;20054;-49
2024/01/17 00:16:28;;;;;;;71.32;16.48;;;5.00;95.70;;;;;;5107312;28;20472;-49
2024/01/17 00:18:55;;;;;;;67.28;14.95;;;5.00;95.70;;;;;;5108679;28;20060;-50
2024/01/17 00:21:20;;;;;;;58.75;14.48;;;5.00;95.70;;;;;;5108653;28;20044;-50
2024/01/17 00:23:46;;;;;;;70.20;14.65;;;5.00;95.70;;;;;;5108629;28;20043;-49
2024/01/17 00:26:12;;;;;;;65.20;15.48;;;5.00;95.80;;;;;;5090296;28;20088;-49
2024/01/17 00:28:37;;;;;;;62.75;13.73;;;5.00;95.80;;;;;;5108436;28;20032;-50
2024/01/17 00:31:03;;;;;;;71.13;15.15;;;5.00;95.80;;;;;;5108375;28;20028;-50
2024/01/17 00:33:28;;;;;;;61.47;14.38;;;5.00;95.80;;;;;;5108546;28;20040;-50
2024/01/17 00:35:54;;;;;;;61.00;14.70;;;5.00;95.80;;;;;;5107925;28;20020;-49
2024/01/17 00:38:19;;;;;;;73.25;15.20;;;5.00;95.80;;;;;;5108102;28;20028;-49
2024/01/17 00:40:45;;;;;;;62.28;13.57;;;5.00;95.80;;;;;;5108107;28;20024;-50
2024/01/17 00:43:11;;;;;;;54.00;13.10;;;4.90;95.80;;;;;;5090128;28;20483;-49
2024/01/17 00:45:36;;;;;;;49.00;14.25;;;4.90;95.80;;;;;;5107845;28;20093;-49
2024/01/17 00:48:03;;;;;;;58.17;13.80;;;4.90;95.80;;;;;;5107995;28;20028;-50
2024/01/17 00:50:28;;;;;;;59.55;13.43;;;4.90;95.80;;;;;;5107928;28;20020;-50
2024/01/17 00:52:54;;;;;;;61.08;14.65;;;4.90;95.80;;;;;;5107932;28;20054;-49
2024/01/17 00:55:19;;;;;;;48.05;13.30;;;4.90;95.90;;;;;;5107756;28;20039;-49
2024/01/17 00:57:45;;;;;;;51.42;12.77;;;4.90;95.90;;;;;;5107868;28;20073;-49
2024/01/17 01:00:11;;;;;;;45.67;14.10;;;4.90;95.90;;;;;;5089699;28;20355;-50
2024/01/17 01:02:37;;;;;;;47.35;13.05;;;4.90;95.90;;;;;;5107811;28;20084;-50
2024/01/17 01:05:02;;;;;;;55.35;14.05;;;4.90;95.90;;;;;;5107681;28;20028;-50
2024/01/17 01:07:28;;;;;;;57.65;12.30;;;4.90;95.90;;;;;;5089201;28;20024;-49
2024/01/17 01:09:53;;;;;;;43.83;12.20;;;4.90;95.90;;;;;;5107605;28;20085;-49
2024/01/17 01:12:19;;;;;;;52.65;13.13;;;4.90;95.90;;;;;;5107547;28;20107;-49
2024/01/17 01:14:45;;;;;;;52.35;13.48;;;4.90;95.90;;;;;;5107375;28;20020;-50
2024/01/17 01:17:10;;;;;;;39.65;12.00;;;4.90;95.90;;;;;;5107292;28;20088;-49
2024/01/17 01:19:36;;;;;;;46.85;11.90;;;4.80;95.90;;;;;;5107228;28;20028;-49
2024/01/17 01:22:01;;;;;;;44.22;11.88;;;4.90;95.90;;;;;;5107276;28;20052;-49
2024/01/17 01:24:27;;;;;;;44.80;12.85;;;4.80;95.90;;;;;;5107039;28;20020;-49
2024/01/17 01:26:52;;;;;;;52.47;12.57;;;4.80;96.00;;;;;;5089192;28;20032;-49
2024/01/17 01:29:18;;;;;;;35.03;11.15;;;4.80;96.00;;;;;;5089001;28;20035;-49
2024/01/17 01:31:43;;;;;;;46.00;12.40;;;4.80;96.00;;;;;;5107364;28;20020;-49
2024/01/17 01:34:09;;;;;;;41.35;11.45;;;4.80;96.00;;;;;;5106542;28;20502;-49
2024/01/17 01:36:34;;;;;;;36.80;11.98;;;4.80;96.10;;;;;;5107283;28;20088;-50
2024/01/17 01:39:00;;;;;;;40.60;11.18;;;4.80;96.10;;;;;;5107131;28;20032;-49
2024/01/17 01:41:26;;;;;;;49.60;12.80;;;4.80;96.10;;;;;;5107108;28;20031;-49
2024/01/17 01:43:51;;;;;;;36.60;10.85;;;4.80;96.10;;;;;;5106993;28;20024;-49
2024/01/17 01:46:20;;;;;;;42.47;11.93;;;4.90;96.10;;;;;;5106967;28;20095;-50
2024/01/17 01:48:46;;;;;;;31.20;10.50;;;4.80;96.10;;;;;;5106964;28;20047;-49
2024/01/17 01:51:12;;;;;;;30.55;9.60;;;4.80;96.10;;;;;;5088755;28;20031;-49
2024/01/17 01:53:37;;;;;;;39.00;11.43;;;4.80;96.10;;;;;;5106813;28;20032;-49
2024/01/17 01:56:03;;;;;;;34.05;10.82;;;4.80;96.00;;;;;;5088615;28;20024;-49
2024/01/17 01:58:29;;;;;;;35.45;11.02;;;4.80;96.10;;;;;;5106809;28;20042;-49
2024/01/17 02:00:55;;;;;;;34.28;11.15;;;4.80;96.10;;;;;;5106759;28;20031;-49
2024/01/17 02:03:21;;;;;;;32.03;11.23;;;4.80;96.10;;;;;;5088744;28;20029;-50
2024/01/17 02:05:47;;;;;;;39.05;11.85;;;4.80;96.10;;;;;;5106562;28;20036;-50
2024/01/17 02:08:12;;;;;;;39.60;11.07;;;4.80;96.10;;;;;;5088401;28;20031;-49
2024/01/17 02:10:38;;;;;;;45.13;10.20;;;4.70;96.20;;;;;;5106686;28;20066;-49
2024/01/17 02:13:04;;;;;;;38.80;11.68;;;4.70;96.20;;;;;;5088365;28;20115;-49
2024/01/17 02:15:29;;;;;;;36.55;11.00;;;4.70;96.20;;;;;;5106535;28;20032;-50
2024/01/17 02:17:55;;;;;;;35.78;10.32;;;4.70;96.30;;;;;;5106603;28;20103;-50
2024/01/17 02:20:21;;;;;;;31.23;10.93;;;4.70;96.30;;;;;;5106489;28;20346;-49
2024/01/17 02:22:47;;;;;;;38.95;11.50;;;4.70;96.30;;;;;;5088102;28;20024;-49
2024/01/17 02:25:12;;;;;;;30.02;10.05;;;4.70;96.40;;;;;;5106318;28;20035;-49
2024/01/17 02:27:38;;;;;;;24.45;9.93;;;4.70;96.40;;;;;;5106186;28;20073;-49
2024/01/17 02:30:08;;;;;;;26.65;10.73;;;4.70;96.40;;;;;;5106319;28;20028;-50
2024/01/17 02:32:36;;;;;;;29.70;10.35;;;4.70;96.30;;;;;;5088142;28;20032;-49
2024/01/17 02:35:02;;;;;;;29.92;10.10;;;4.70;96.40;;;;;;5071287;28;20046;-49
2024/01/17 02:37:29;;;;;;;32.85;10.38;;;4.70;96.30;;;;;;5106231;28;20092;-49
2024/01/17 02:39:54;;;;;;;23.27;9.38;;;4.70;96.30;;;;;;5107700;28;20028;-50
2024/01/17 02:42:20;;;;;;;36.33;11.02;;;4.70;96.40;;;;;;5092515;28;20031;-49
2024/01/17 02:44:46;;;;;;;31.55;9.88;;;4.70;96.40;;;;;;5110371;28;20051;-49
2024/01/17 02:47:12;;;;;;;25.02;9.85;;;4.70;96.40;;;;;;5110584;28;20097;-49
2024/01/17 02:49:38;;;;;;;33.75;10.25;;;4.70;96.30;;;;;;5110404;28;20024;-49
2024/01/17 02:52:03;;;;;;;36.05;9.93;;;4.70;96.30;;;;;;5110326;28;20055;-49
2024/01/17 02:54:29;;;;;;;28.55;9.90;;;4.70;96.30;;;;;;5109916;28;20024;-49
2024/01/17 02:56:55;;;;;;;28.73;9.35;;;4.70;96.40;;;;;;5110165;28;20061;-49
2024/01/17 02:59:21;;;;;;;30.85;10.18;;;4.70;96.40;;;;;;5092126;28;20103;-49
2024/01/17 03:01:46;;;;;;;22.13;9.57;;;4.70;96.40;;;;;;5110174;28;20456;-49
2024/01/17 03:04:12;;;;;;;24.42;9.77;;;4.60;96.40;;;;;;5110098;28;20032;-49
2024/01/17 03:06:38;;;;;;;32.25;9.90;;;4.60;96.40;;;;;;5091999;28;20024;-49
2024/01/17 03:09:04;;;;;;;30.77;9.20;;;4.60;96.40;;;;;;5110028;28;20088;-49
2024/01/17 03:11:30;;;;;;;24.45;8.93;;;4.60;96.40;;;;;;5110002;28;20032;-50
2024/01/17 03:13:55;;;;;;;26.90;8.63;;;4.70;96.50;;;;;;5109775;28;20464;-49
2024/01/17 03:16:21;;;;;;;28.52;9.63;;;4.60;96.40;;;;;;5109858;28;20107;-49
2024/01/17 03:18:47;;;;;;;24.38;9.88;;;4.60;96.40;;;;;;5109785;28;20089;-49
2024/01/17 03:21:13;;;;;;;21.60;9.07;;;4.60;96.40;;;;;;5109827;28;20103;-49
2024/01/17 03:23:39;;;;;;;24.90;9.40;;;4.60;96.50;;;;;;5109722;28;20031;-49
2024/01/17 03:26:05;;;;;;;24.63;9.95;;;4.60;96.50;;;;;;5109684;28;20456;-49
2024/01/17 03:28:30;;;;;;;34.63;9.80;;;4.60;96.80;;;;;;5091387;28;20033;-49
2024/01/17 03:30:56;;;;;;;27.60;9.50;;;4.60;96.50;;;;;;5109573;28;20042;-49
2024/01/17 03:33:21;;;;;;;22.58;9.30;;;4.60;96.50;;;;;;5109528;28;20024;-50
2024/01/17 03:35:47;;;;;;;29.90;10.02;;;4.60;96.50;;;;;;5109441;28;20039;-49
2024/01/17 03:38:12;;;;;;;23.02;9.57;;;4.60;96.50;;;;;;5109514;28;20039;-49
2024/01/17 03:40:38;;;;;;;24.60;9.85;;;4.60;96.50;;;;;;5109301;28;20091;-49
2024/01/17 03:43:03;;;;;;;25.48;9.73;;;4.60;96.50;;;;;;5109197;28;20085;-50
2024/01/17 03:45:29;;;;;;;25.30;9.57;;;4.60;96.50;;;;;;5109100;28;20028;-49
2024/01/17 03:47:54;;;;;;;23.77;8.80;;;4.60;96.50;;;;;;5109092;28;20035;-49
2024/01/17 03:50:20;;;;;;;25.77;8.88;;;4.60;96.60;;;;;;5108895;28;20028;-49
2024/01/17 03:52:45;;;;;;;27.83;9.85;;;4.60;96.60;;;;;;5109044;28;20036;-49
2024/01/17 03:55:11;;;;;;;23.30;9.25;;;4.60;96.90;;;;;;5108773;28;20488;-49
2024/01/17 03:57:36;;;;;;;27.05;9.60;;;4.60;96.60;;;;;;5109137;28;20118;-49
2024/01/17 04:00:06;;;;;;;29.20;8.95;;;4.50;96.60;;;;;;5108794;28;20036;-49
2024/01/17 04:02:31;;;;;;;23.55;9.45;;;4.60;96.60;;;;;;5108900;28;20020;-49
2024/01/17 04:04:57;;;;;;;23.45;9.27;;;4.50;96.60;;;;;;5108891;28;20073;-49
2024/01/17 04:07:22;;;;;;;26.98;9.40;;;4.60;96.70;;;;;;5108767;28;20040;-50
2024/01/17 04:09:48;;;;;;;22.92;9.05;;;4.50;96.60;;;;;;5108826;28;20111;-49
2024/01/17 04:12:14;;;;;;;21.05;9.05;;;4.50;96.60;;;;;;5108632;28;20024;-49
2024/01/17 04:14:39;;;;;;;21.10;9.02;;;4.60;96.60;;;;;;5108682;28;20445;-49
2024/01/17 04:17:05;;;;;;;18.75;8.88;;;4.50;96.60;;;;;;5108599;28;20028;-49
2024/01/17 04:19:30;;;;;;;18.42;8.98;;;4.60;96.70;;;;;;5108595;28;20099;-49
2024/01/17 04:21:57;;;;;;;21.80;9.05;;;4.60;96.70;;;;;;5108501;28;20031;-49
2024/01/17 04:24:25;;;;;;;19.85;8.75;;;4.60;96.70;;;;;;5108561;28;20024;-49
2024/01/17 04:26:54;;;;;;;19.63;8.77;;;4.50;97.00;;;;;;5108514;28;20064;-49
2024/01/17 04:29:19;;;;;;;20.17;8.23;;;4.50;96.70;;;;;;5108516;28;20083;-49
2024/01/17 04:31:45;;;;;;;18.15;8.35;;;4.50;96.70;;;;;;5108465;28;20036;-49
2024/01/17 04:34:10;;;;;;;21.98;9.65;;;4.50;96.70;;;;;;5090053;28;20124;-49
2024/01/17 04:36:36;;;;;;;15.80;8.07;;;4.60;96.70;;;;;;5108244;28;20035;-49
2024/01/17 04:39:01;;;;;;;23.67;8.88;;;4.50;96.70;;;;;;5108196;28;20032;-50
2024/01/17 04:41:27;;;;;;;22.52;8.80;;;4.50;96.70;;;;;;5090264;28;20028;-49
2024/01/17 04:43:52;;;;;;;19.35;9.40;;;4.60;96.70;;;;;;5108030;28;20056;-49
2024/01/17 04:46:18;;;;;;;20.13;8.90;;;4.50;96.80;;;;;;5108138;28;20058;-49
2024/01/17 04:48:44;;;;;;;17.25;8.80;;;4.50;96.80;;;;;;5108064;28;20472;-49
2024/01/17 04:51:10;;;;;;;24.38;9.15;;;4.50;96.80;;;;;;5108156;28;20024;-50
2024/01/17 04:53:42;;;;;;;17.77;8.75;;;4.50;96.80;;;;;;5107810;28;20058;-49
2024/01/17 04:56:09;;;;;;;18.58;8.77;;;4.50;96.80;;;;;;5107780;28;20062;-49
2024/01/17 04:58:36;;;;;;;24.13;8.60;;;4.50;96.80;;;;;;5107859;28;20035;-49
2024/01/17 05:01:01;;;;;;;20.55;8.57;;;4.50;96.80;;;;;;5107703;28;20051;-49
2024/01/17 05:03:27;;;;;;;18.17;8.82;;;4.60;96.90;;;;;;5106998;28;20024;-49
2024/01/17 05:05:53;;;;;;;17.50;9.18;;;4.50;96.80;;;;;;5107640;28;20093;-50
2024/01/17 05:08:19;;;;;;;24.17;8.95;;;4.50;96.80;;;;;;5107637;28;20034;-50
2024/01/17 05:10:45;;;;;;;25.85;8.95;;;4.50;96.80;;;;;;5107537;28;20507;-49
2024/01/17 05:13:11;;;;;;;15.98;8.20;;;4.50;96.90;;;;;;5107573;28;20020;-49
2024/01/17 05:15:37;;;;;;;17.90;7.82;;;4.50;96.80;;;;;;5107356;28;20024;-49
2024/01/17 05:18:04;;;;;;;16.73;8.50;;;4.50;96.90;;;;;;5089225;28;20032;-50
2024/01/17 05:20:30;;;;;;;25.70;8.82;;;4.50;97.00;;;;;;5107177;28;20020;-49
2024/01/17 05:22:55;;;;;;;16.33;8.13;;;4.50;97.00;;;;;;5107375;28;20020;-50
2024/01/17 05:25:21;;;;;;;15.00;8.18;;;4.50;96.90;;;;;;5107192;28;20380;-50
2024/01/17 05:27:51;;;;;;;18.15;8.80;;;4.50;97.00;;;;;;5106526;28;20130;-50
2024/01/17 05:30:26;;;;;;;15.55;7.85;;;4.50;97.00;;;;;;5107309;28;20084;-49
2024/01/17 05:32:52;;;;;;;22.38;8.27;;;4.60;97.10;;;;;;5107212;28;20050;-49
2024/01/17 05:35:18;;;;;;;14.07;7.38;;;4.50;97.20;;;;;;5106912;28;20122;-50
2024/01/17 05:37:45;;;;;;;20.98;8.70;;;4.50;97.30;;;;;;5107017;28;20035;-49
2024/01/17 05:40:11;;;;;;;20.40;8.02;;;4.60;97.60;;;;;;5107075;28;20028;-49
2024/01/17 05:42:40;;;;;;;13.73;7.38;;;4.60;97.50;;;;;;5106982;28;20023;-50
2024/01/17 05:45:07;;;;;;;17.38;8.60;;;4.60;97.40;;;;;;5106869;28;20024;-50
2024/01/17 05:47:36;;;;;;;18.00;7.90;;;4.60;97.60;;;;;;5106735;28;20032;-50
2024/01/17 05:50:03;;;;;;;13.95;6.70;;;4.60;97.60;;;;;;5106702;28;20048;-49
2024/01/17 05:52:30;;;;;;;15.18;7.10;;;4.60;97.80;;;;;;5106865;28;20603;-50
2024/01/17 05:54:55;;;;;;;19.05;8.07;;;4.60;98.20;;;;;;5098196;28;20031;-49
2024/01/17 05:57:21;;;;;;;19.45;7.53;;;4.60;98.70;;;;;;5089180;28;20056;-50
2024/01/17 05:59:46;;;;;;;22.35;7.82;;;4.70;98.30;;;;;;5099037;28;20050;-50
2024/01/17 06:02:12;;;;;;;24.02;8.90;;;4.60;98.30;;;;;;5101899;28;20527;-49
2024/01/17 06:04:37;;;;;;;29.40;8.05;;;4.60;98.30;;;;;;5094301;28;20016;-50
2024/01/17 06:07:03;;;;;;;35.35;8.65;;;4.70;98.40;;;;;;5106340;28;20036;-49
2024/01/17 06:09:28;;;;;;;26.10;8.80;;;4.70;98.20;;;;;;5093225;28;20035;-50
2024/01/17 06:11:55;;;;;;;26.65;7.75;;;4.70;98.20;;;;;;5086407;28;20075;-50
2024/01/17 06:14:20;;;;;;;26.30;7.82;;;4.70;98.20;;;;;;5101638;28;20028;-50
2024/01/17 06:16:47;;;;;;;28.95;8.13;;;4.70;98.60;;;;;;5099679;28;20043;-49
2024/01/17 06:19:14;;;;;;;20.73;7.72;;;4.70;98.60;;;;;;5084158;28;20574;-50
2024/01/17 06:21:40;;;;;;;26.10;7.35;;;4.70;98.90;;;;;;5084455;28;20025;-50
2024/01/17 06:24:05;;;;;;;21.95;7.93;;;4.70;99.30;;;;;;5084108;28;20476;-49
2024/01/17 06:26:31;;;;;;;90.07;11.13;;;4.80;99.50;;;;;;5084170;28;20028;-49
2024/01/17 06:28:57;;;;;;;42.90;10.55;;;4.80;99.40;;;;;;5083957;28;20024;-50
2024/01/17 06:31:24;;;;;;;25.67;8.45;;;4.80;99.70;;;;;;5085292;28;20043;-50
2024/01/17 06:33:53;;;;;;;27.48;7.07;;;4.80;99.90;;;;;;5085848;28;20495;-50
2024/01/17 06:36:19;;;;;;;35.60;7.88;;;4.80;99.90;;;;;;5086051;28;20037;-49
2024/01/17 06:38:44;;;;;;;40.40;8.55;;;4.80;99.90;;;;;;5085864;28;20033;-50
2024/01/17 06:41:10;;;;;;;45.00;9.48;;;4.80;99.90;;;;;;5085945;28;20084;-50
2024/01/17 06:43:36;;;;;;;46.10;9.82;;;4.80;99.90;;;;;;5085742;28;20067;-50
2024/01/17 06:46:02;;;;;;;40.10;8.57;;;4.80;99.90;;;;;;5101213;28;20020;-50
2024/01/17 06:48:28;;;;;;;32.78;9.05;;;4.80;99.90;;;;;;5085565;28;20037;-50
2024/01/17 06:50:53;;;;;;;32.03;7.95;;;4.80;99.90;;;;;;5089750;28;20028;-50
2024/01/17 06:53:21;;;;;;;32.47;8.95;;;4.80;99.90;;;;;;5099657;28;20040;-50
2024/01/17 06:55:47;;;;;;;32.15;8.13;;;4.80;99.90;;;;;;5094511;28;20024;-49
2024/01/17 06:58:12;;;;;;;39.40;9.15;;;4.80;99.90;;;;;;5101545;28;20086;-49
2024/01/17 07:00:38;;;;;;;30.67;8.65;;;4.90;99.90;;;;;;5117398;28;20077;-50
2024/01/17 07:03:04;;;;;;;30.52;7.90;;;4.80;99.90;;;;;;5106494;28;20032;-50
2024/01/17 07:05:29;;;;;;;41.38;8.40;;;4.90;99.90;;;;;;5108538;28;20024;-49
2024/01/17 07:07:55;;;;;;;39.80;8.65;;;4.80;99.90;;;;;;5097151;28;20035;-50
2024/01/17 07:10:20;;;;;;;32.28;9.32;;;4.90;99.90;;;;;;5115618;28;20089;-49
2024/01/17 07:12:46;;;;;;;27.85;7.63;;;4.90;99.90;;;;;;5103015;28;20040;-49
2024/01/17 07:15:12;;;;;;;24.80;7.95;;;4.90;99.90;;;;;;5101763;28;20043;-50
2024/01/17 07:17:38;;;;;;;23.00;8.75;;;4.90;99.90;;;;;;5098507;28;20123;-49
2024/01/17 07:20:04;;;;;;;19.92;6.97;;;4.90;99.90;;;;;;5105431;28;20028;-50
2024/01/17 07:22:30;;;;;;;28.25;8.68;;;4.90;99.90;;;;;;5121376;28;20032;-50
2024/01/17 07:24:56;;;;;;;35.58;8.00;;;4.90;99.90;;;;;;5117710;28;20047;-48
2024/01/17 07:27:21;;;;;;;34.45;7.40;;;4.90;99.90;;;;;;5088071;28;20054;-50
2024/01/17 07:29:47;;;;;;;35.90;8.85;;;4.90;99.90;;;;;;5088967;28;20080;-49
2024/01/17 07:32:13;;;;;;;40.38;8.88;;;4.90;99.90;;;;;;5089070;28;20036;-50
2024/01/17 07:34:38;;;;;;;37.88;8.32;;;4.90;99.90;;;;;;5106488;28;20101;-49
2024/01/17 07:37:04;;;;;;;37.75;8.63;;;4.90;99.90;;;;;;5107349;28;20032;-50
2024/01/17 07:39:30;;;;;;;27.33;7.15;;;4.90;99.90;;;;;;5107814;28;20016;-50
2024/01/17 07:41:58;;;;;;;22.75;7.00;;;4.90;99.90;;;;;;5108854;28;20058;-49
2024/01/17 07:44:29;;;;;;;20.35;6.80;;;4.90;99.90;;;;;;5108502;28;20020;-50
2024/01/17 07:46:55;;;;;;;20.65;7.35;;;4.90;99.90;;;;;;5108736;28;20050;-50
2024/01/17 07:49:20;;;;;;;28.52;6.80;;;4.90;99.90;;;;;;5109181;28;20024;-50
2024/01/17 07:51:46;;;;;;;21.65;6.30;;;4.90;99.90;;;;;;5109299;28;20108;-49
2024/01/17 07:54:13;;;;;;;27.15;6.28;;;4.90;99.90;;;;;;5107647;28;20294;-49
2024/01/17 07:56:38;;;;;;;17.77;6.70;;;4.90;99.90;;;;;;5108963;28;20043;-50
2024/01/17 07:59:04;;;;;;;26.73;6.35;;;4.90;99.90;;;;;;5107914;28;20024;-50
2024/01/17 08:01:30;;;;;;;26.48;6.55;;;5.00;99.90;;;;;;5090509;28;20026;-50
2024/01/17 08:03:55;;;;;;;24.85;6.90;;;5.00;99.90;;;;;;5090466;28;20480;-49
2024/01/17 08:06:21;;;;;;;15.80;6.18;;;5.00;99.90;;;;;;5108969;28;20028;-50
2024/01/17 08:08:46;;;;;;;29.85;6.82;;;5.00;99.90;;;;;;5108994;28;20092;-49
2024/01/17 08:11:12;;;;;;;26.63;6.45;;;5.00;99.90;;;;;;5108746;28;20039;-49
2024/01/17 08:13:37;;;;;;;25.05;7.30;;;5.00;99.90;;;;;;5108185;28;20024;-49
2024/01/17 08:16:03;;;;;;;25.50;7.10;;;5.00;99.90;;;;;;5090441;28;20034;-50
2024/01/17 08:18:29;;;;;;;26.45;6.78;;;5.00;99.90;;;;;;5090573;28;20035;-49
2024/01/17 08:20:54;;;;;;;17.63;6.03;;;5.00;99.90;;;;;;5108883;28;20098;-50
2024/01/17 08:23:20;;;;;;;23.63;5.60;;;5.00;99.90;;;;;;5108154;28;20028;-50
2024/01/17 08:25:45;;;;;;;18.27;6.55;;;5.00;99.90;;;;;;5108380;28;20032;-50
2024/01/17 08:28:11;;;;;;;18.05;6.10;;;5.00;99.90;;;;;;5108310;28;20502;-49
2024/01/17 08:30:36;;;;;;;28.80;7.03;;;5.00;99.90;;;;;;5107973;28;20032;-50
2024/01/17 08:33:02;;;;;;;23.15;6.63;;;5.10;99.90;;;;;;5108173;28;20036;-49
2024/01/17 08:35:28;;;;;;;27.73;6.95;;;5.10;99.90;;;;;;5107924;28;20064;-49
2024/01/17 08:37:53;;;;;;;17.77;5.78;;;5.10;99.90;;;;;;5107173;28;20031;-49
2024/01/17 08:40:19;;;;;;;17.33;7.00;;;5.00;99.90;;;;;;5108048;28;20052;-49
2024/01/17 08:42:45;;;;;;;24.48;6.72;;;5.10;99.90;;;;;;5108041;28;20055;-50
2024/01/17 08:45:10;;;;;;;18.95;6.20;;;5.10;99.90;;;;;;5107890;28;20494;-50
2024/01/17 08:47:36;;;;;;;29.17;7.85;;;5.10;99.90;;;;;;5107767;28;20032;-49
2024/01/17 08:50:02;;;;;;;22.73;6.43;;;5.10;99.90;;;;;;5107847;28;20388;-49
2024/01/17 08:52:30;;;;;;;17.38;6.20;;;5.10;99.90;;;;;;5107916;28;20036;-49
2024/01/17 08:54:56;;;;;;;20.83;6.85;;;5.10;99.90;;;;;;5107495;28;20238;-49
2024/01/17 08:57:21;;;;;;;20.33;5.60;;;5.10;99.90;;;;;;5107805;28;20040;-49
2024/01/17 08:59:47;;;;;;;28.08;6.55;;;5.10;99.90;;;;;;5107703;28;20031;-50
2024/01/17 09:02:12;;;;;;;35.33;8.60;;;5.10;99.90;;;;;;5107641;28;20032;-49
2024/01/17 09:04:39;;;;;;;38.67;7.10;;;5.10;99.90;;;;;;5107180;28;20024;-50
2024/01/17 09:07:05;;;;;;;39.63;10.07;;;5.10;99.90;;;;;;5100906;28;20046;-50
2024/01/17 09:09:30;;;;;;;30.17;9.15;;;5.20;99.90;;;;;;5102950;28;20076;-50
2024/01/17 09:11:56;;;;;;;40.13;9.10;;;5.20;99.90;;;;;;5096374;28;20028;-50
2024/01/17 09:14:24;;;;;;;63.33;9.20;;;5.20;99.90;;;;;;5094235;28;20035;-49
2024/01/17 09:16:53;;;;;;;251.75;25.33;;;5.20;99.90;;;;;;5084457;28;20103;-49
2024/01/17 09:19:21;;;;;;;115.70;15.95;;;5.30;99.90;;;;;;5118915;28;20161;-50
2024/01/17 09:21:48;;;;;;;97.00;10.93;;;5.30;99.90;;;;;;5104167;28;20483;-50
2024/01/17 09:24:14;;;;;;;47.88;9.10;;;5.30;99.90;;;;;;5105715;28;20471;-48
2024/01/17 09:26:39;;;;;;;57.38;9.30;;;5.30;99.90;;;;;;5103134;28;20094;-50
2024/01/17 09:29:05;;;;;;;36.67;8.48;;;5.30;99.90;;;;;;5104435;28;20490;-50
2024/01/17 09:31:30;;;;;;;38.83;7.90;;;5.30;99.90;;;;;;5105709;28;20115;-50
2024/01/17 09:33:56;;;;;;;34.90;7.68;;;5.30;99.90;;;;;;5102727;28;20032;-49
2024/01/17 09:36:21;;;;;;;50.15;9.00;;;5.30;99.90;;;;;;5098116;28;20044;-49
2024/01/17 09:38:47;;;;;;;39.83;8.05;;;5.30;99.90;;;;;;5103504;28;20475;-49
2024/01/17 09:41:13;;;;;;;37.83;9.48;;;5.30;99.90;;;;;;5112860;28;20051;-49
2024/01/17 09:43:40;;;;;;;43.70;8.68;;;5.30;99.90;;;;;;5097832;28;20086;-49
2024/01/17 09:46:12;;;;;;;31.10;8.27;;;5.30;99.90;;;;;;5121495;28;20020;-50
2024/01/17 09:48:38;;;;;;;47.70;8.32;;;5.30;99.90;;;;;;5091138;28;20031;-49
2024/01/17 09:51:04;;;;;;;40.53;8.68;;;5.40;99.90;;;;;;5120473;28;20031;-49
2024/01/17 09:53:32;;;;;;;60.85;10.88;;;5.40;99.90;;;;;;5086936;28;20039;-49
2024/01/17 09:56:00;;;;;;;57.85;8.52;;;5.40;99.90;;;;;;5119742;28;20028;-49
2024/01/17 09:58:28;;;;;;;40.45;9.27;;;5.40;99.90;;;;;;5088304;28;20031;-49
2024/01/17 10:00:55;;;;;;;39.92;8.35;;;5.40;99.90;;;;;;5106266;28;20020;-50
2024/01/17 10:03:21;;;;;;;30.48;7.68;;;5.40;99.90;;;;;;5106477;28;20024;-49
2024/01/17 10:05:50;;;;;;;43.85;9.20;;;5.40;99.90;;;;;;5106261;28;20065;-50
2024/01/17 10:08:17;;;;;;;34.53;8.00;;;5.50;99.90;;;;;;5121958;28;20024;-50
2024/01/17 10:10:44;;;;;;;39.33;8.77;;;5.50;99.90;;;;;;5121810;27;20043;-51
2024/01/17 10:13:11;;;;;;;46.67;9.10;;;5.50;99.90;;;;;;5105995;28;20028;-50
2024/01/17 10:15:45;;;;;;;56.38;9.48;;;5.60;99.90;;;;;;5088447;28;20036;-51
2024/01/17 10:18:11;;;;;;;64.97;10.65;;;5.50;99.90;;;;;;5088365;28;20040;-50
2024/01/17 10:20:37;;;;;;;51.72;11.23;;;5.50;99.90;;;;;;5106045;28;20024;-50
2024/01/17 10:23:05;;;;;;;49.50;9.48;;;5.60;99.90;;;;;;5106200;28;20032;-50
2024/01/17 10:25:43;;;;;;;54.75;9.93;;;5.60;99.90;;;;;;5106168;28;20077;-50
2024/01/17 10:28:09;;;;;;;66.72;11.27;;;5.60;99.90;;;;;;5088029;28;20536;-50
2024/01/17 10:30:39;;;;;;;98.15;14.07;;;5.60;99.90;;;;;;5106224;28;20028;-50
2024/01/17 10:33:08;;;;;;;118.65;14.70;;;5.60;99.90;;;;;;5106284;28;20019;-50
2024/01/17 10:35:34;;;;;;;93.50;14.35;;;5.60;99.90;;;;;;5088227;28;20024;-50
2024/01/17 10:38:00;;;;;;;118.22;14.73;;;5.60;99.90;;;;;;5087656;28;20027;-51
2024/01/17 10:40:26;;;;;;;119.22;13.13;;;5.70;99.90;;;;;;5105939;28;20031;-50
2024/01/17 10:43:04;;;;;;;62.95;11.80;;;5.70;99.90;;;;;;5105955;28;20020;-50
2024/01/17 10:45:35;;;;;;;72.25;10.73;;;5.70;99.90;;;;;;5106042;28;20020;-51
2024/01/17 10:48:01;;;;;;;61.97;10.88;;;5.90;99.90;;;;;;5105945;28;20032;-50
2024/01/17 10:50:27;;;;;;;66.85;10.60;;;5.70;99.90;;;;;;5105856;28;20499;-50
2024/01/17 10:52:52;;;;;;;64.38;11.40;;;5.80;99.90;;;;;;5105920;28;20472;-50
2024/01/17 10:55:18;;;;;;;67.95;10.82;;;5.80;99.90;;;;;;5087914;28;20020;-51
2024/01/17 10:57:44;;;;;;;92.30;12.15;;;5.80;99.90;;;;;;5087481;28;20036;-50
2024/01/17 11:00:16;;;;;;;66.97;11.70;;;5.80;99.90;;;;;;5087770;28;20032;-50
2024/01/17 11:02:42;;;;;;;80.97;13.02;;;5.80;99.90;;;;;;5092469;28;20024;-50
2024/01/17 11:05:12;;;;;;;74.22;10.93;;;5.90;99.90;;;;;;5091601;28;20020;-50
2024/01/17 11:07:39;;;;;;;76.00;12.02;;;5.90;99.90;;;;;;5110126;28;20051;-50
2024/01/17 11:10:05;;;;;;;62.13;11.48;;;5.90;99.90;;;;;;5091692;28;20034;-50
2024/01/17 11:12:32;;;;;;;76.85;11.45;;;5.90;99.90;;;;;;5089561;28;20024;-50
2024/01/17 11:15:03;;;;;;;60.28;10.75;;;5.90;99.90;;;;;;5091281;28;20036;-50
2024/01/17 11:17:30;;;;;;;75.82;11.98;;;5.90;99.90;;;;;;5089009;28;20020;-51
2024/01/17 11:19:56;;;;;;;46.80;9.98;;;6.00;99.90;;;;;;5107671;28;20032;-51
2024/01/17 11:22:21;;;;;;;49.58;9.38;;;6.00;99.90;;;;;;5089141;28;20441;-50
2024/01/17 11:25:16;;;;;;;39.53;7.22;;;6.20;99.90;;;;;;5107344;28;20031;-51
2024/01/17 11:28:09;;;;;;;44.95;8.05;;;6.10;99.90;;;;;;5106812;28;20036;-50
2024/01/17 11:30:56;;;;;;;63.00;8.50;;;6.10;99.90;;;;;;5105691;28;20024;-50
2024/01/17 11:33:22;;;;;;;50.47;8.32;;;6.10;99.90;;;;;;5109164;28;20034;-50
2024/01/17 11:35:49;;;;;;;45.97;7.93;;;6.20;99.90;;;;;;5124797;28;20088;-50
2024/01/17 11:38:24;;;;;;;57.58;7.90;;;6.30;99.90;;;;;;5107210;28;20146;-50
2024/01/17 11:40:53;;;;;;;59.35;9.13;;;6.20;99.90;;;;;;5108045;28;20039;-50
2024/01/17 11:43:19;;;;;;;51.95;8.05;;;6.30;99.90;;;;;;5107995;28;20020;-50
2024/01/17 11:45:47;;;;;;;61.20;8.40;;;6.30;99.90;;;;;;5108241;28;20032;-50
2024/01/17 11:48:25;;;;;;;38.25;6.47;;;6.40;99.90;;;;;;5108848;28;20024;-50
2024/01/17 11:51:06;;;;;;;28.60;5.88;;;6.40;99.90;;;;;;5108679;28;20032;-51
2024/01/17 11:53:35;;;;;;;41.92;6.68;;;6.40;99.90;;;;;;5108796;28;20027;-50
2024/01/17 11:56:01;;;;;;;44.50;7.88;;;6.70;99.90;;;;;;5108733;28;20482;-50
2024/01/17 11:58:43;;;;;;;50.13;7.05;;;6.60;99.90;;;;;;5108716;28;20043;-50
2024/01/17 12:01:10;;;;;;;50.63;9.05;;;6.50;99.90;;;;;;5107869;28;20032;-50
2024/01/17 12:03:36;;;;;;;48.13;8.23;;;6.50;99.90;;;;;;5115080;28;20027;-49
2024/01/17 12:06:02;;;;;;;31.27;6.45;;;6.50;99.90;;;;;;5108986;28;20059;-50
2024/01/17 12:08:28;;;;;;;25.95;6.25;;;6.60;99.90;;;;;;5106978;28;20055;-50
2024/01/17 12:10:54;;;;;;;38.03;5.95;;;6.60;99.90;;;;;;5106718;28;20074;-50
2024/01/17 12:13:21;;;;;;;47.90;7.32;;;6.60;99.90;;;;;;5109369;28;20107;-50
2024/01/17 12:15:48;;;;;;;32.30;5.35;;;6.70;99.90;;;;;;5112115;28;20039;-50
2024/01/17 12:18:19;;;;;;;29.73;5.25;;;6.70;99.90;;;;;;5124069;28;20560;-50
2024/01/17 12:20:47;;;;;;;52.58;7.55;;;6.70;99.90;;;;;;5108273;28;20032;-50
2024/01/17 12:23:12;;;;;;;52.88;6.88;;;6.70;99.90;;;;;;5107509;28;20028;-50
2024/01/17 12:25:38;;;;;;;46.55;8.27;;;6.80;99.90;;;;;;5108076;28;20070;-50
2024/01/17 12:28:05;;;;;;;66.32;9.68;;;6.80;99.90;;;;;;5108093;28;20042;-50
2024/01/17 12:30:31;;;;;;;67.57;9.38;;;6.90;99.90;;;;;;5106974;28;20063;-50
2024/01/17 12:32:56;;;;;;;63.13;8.85;;;6.90;99.90;;;;;;5099984;28;20016;-50
2024/01/17 12:35:22;;;;;;;82.72;11.55;;;6.80;99.90;;;;;;5116493;27;20028;-50
2024/01/17 12:37:49;;;;;;;181.63;22.02;;;6.90;99.90;;;;;;5103596;28;20047;-50
2024/01/17 12:40:15;;;;;;;66.15;7.68;;;6.90;99.90;;;;;;5124151;28;20031;-50